createdAt,value
2023-04-01T10:37:05.570Z,12.50
2023-04-01T10:43:33.818Z,16.70
2023-04-01T10:48:42.720Z,16.20
2023-04-01T10:53:51.077Z,15.70
2023-04-01T10:58:59.990Z,15.30
2023-04-01T11:04:09.524Z,15.10
2023-04-01T11:09:18.959Z,14.90
2023-04-01T11:14:28.279Z,14.90
2023-04-01T11:19:37.432Z,15.00
2023-04-01T11:24:46.823Z,14.90
2023-04-01T11:30:00.246Z,14.90
2023-04-01T11:35:04.127Z,15.40
2023-04-01T11:40:12.816Z,15.80
2023-04-01T11:45:21.139Z,15.80
2023-04-01T11:50:31.767Z,15.90
2023-04-01T11:55:30.003Z,16.00
2023-04-01T12:00:40.696Z,16.00
2023-04-01T12:05:41.036Z,15.80
2023-04-01T12:10:40.633Z,15.50
2023-04-01T12:15:49.672Z,15.40
2023-04-01T12:20:59.201Z,15.40
2023-04-01T12:26:07.485Z,15.40
2023-04-01T12:31:17.474Z,15.40
2023-04-01T12:36:26.656Z,15.30
2023-04-01T12:41:35.360Z,15.30
2023-04-01T12:46:44.114Z,15.30
2023-04-01T12:51:54.185Z,15.50
2023-04-01T12:56:53.950Z,15.70
2023-04-01T13:02:03.002Z,15.80
2023-04-01T13:07:11.493Z,15.90
2023-04-01T13:12:21.169Z,16.10
2023-04-01T13:17:31.835Z,16.50
2023-04-01T13:22:31.449Z,16.90
2023-04-01T13:27:41.139Z,17.10
2023-04-01T13:32:51.924Z,16.90
2023-04-01T13:37:51.088Z,16.60
2023-04-01T13:43:01.888Z,16.20
2023-04-01T13:48:01.696Z,15.90
2023-04-01T13:53:11.854Z,15.70
2023-04-01T13:58:09.932Z,15.50
2023-04-01T14:03:19.787Z,15.40
2023-04-01T14:08:28.653Z,15.30
2023-04-01T14:13:38.601Z,15.30
2023-04-01T14:18:49.418Z,15.30
2023-04-01T14:23:48.693Z,15.40
2023-04-01T14:28:57.511Z,15.50
2023-04-01T14:34:09.422Z,15.60
2023-04-01T14:39:09.041Z,15.40
2023-04-01T14:44:18.044Z,15.20
2023-04-01T14:49:28.365Z,15.00
2023-04-01T14:54:27.080Z,14.80
2023-04-01T14:59:35.758Z,14.70
2023-04-01T15:04:44.567Z,14.60
2023-04-01T15:09:53.917Z,14.50
2023-04-01T15:15:03.087Z,14.40
2023-04-01T15:20:11.359Z,14.40
2023-04-01T15:25:21.520Z,14.40
2023-04-01T15:30:21.532Z,14.30
2023-04-01T15:35:21.324Z,14.10
2023-04-01T15:40:31.555Z,14.00
2023-04-01T15:45:32.067Z,13.90
2023-04-01T15:50:41.335Z,13.90
2023-04-01T15:55:51.989Z,13.80
2023-04-01T16:00:51.414Z,13.80
2023-04-01T16:06:01.016Z,13.60
2023-04-01T16:11:09.421Z,13.50
2023-04-01T16:16:20.481Z,13.50
2023-04-01T16:21:18.650Z,13.40
2023-04-01T16:26:29.376Z,13.30
2023-04-01T16:31:28.719Z,13.10
2023-04-01T16:36:38.064Z,13.00
2023-04-01T16:41:47.090Z,13.00
2023-04-01T16:46:56.191Z,12.90
2023-04-01T16:52:06.085Z,12.80
2023-04-01T16:57:14.511Z,12.70
2023-04-01T17:02:24.368Z,12.70
2023-04-01T17:07:32.690Z,12.60
2023-04-01T17:12:42.265Z,12.60
2023-04-01T17:17:51.946Z,12.50
2023-04-01T17:23:00.982Z,12.50
2023-04-01T17:28:10.438Z,12.40
2023-04-01T17:33:18.753Z,12.30
2023-04-01T17:38:27.376Z,12.20
2023-04-01T17:43:35.461Z,12.20
2023-04-01T17:48:43.908Z,12.20
2023-04-01T17:53:53.223Z,12.10
2023-04-01T17:59:01.674Z,12.10
2023-04-01T18:04:12.393Z,12.00
2023-04-01T18:09:13.541Z,12.00
2023-04-01T18:14:12.592Z,11.90
2023-04-01T18:19:23.099Z,11.90
2023-04-01T18:24:22.088Z,11.80
2023-04-01T18:29:32.445Z,11.80
2023-04-01T18:34:30.864Z,11.70
2023-04-01T18:39:41.129Z,11.70
2023-04-01T18:44:40.696Z,11.60
2023-04-01T18:49:51.022Z,11.60
2023-04-01T18:54:49.322Z,11.60
2023-04-01T18:59:58.307Z,11.60
2023-04-01T19:05:08.334Z,11.60
2023-04-01T19:10:06.644Z,11.50
2023-04-01T19:15:15.216Z,11.50
2023-04-01T19:20:27.781Z,11.40
2023-04-01T19:25:26.421Z,11.40
2023-04-01T19:30:36.376Z,11.30
2023-04-01T19:35:47.297Z,11.30
2023-04-01T19:40:45.856Z,11.30
2023-04-01T19:45:54.221Z,11.30
2023-04-01T19:51:03.079Z,11.20
2023-04-01T19:56:12.755Z,11.20
2023-04-01T20:01:22.012Z,11.20
2023-04-01T20:06:29.886Z,11.20
2023-04-01T20:11:35.437Z,11.20
2023-04-01T20:16:44.266Z,11.20
2023-04-01T20:21:54.346Z,11.20
2023-04-01T20:26:54.102Z,11.20
2023-04-01T20:32:04.786Z,11.20
2023-04-01T20:37:05.418Z,11.20
2023-04-01T20:42:06.868Z,11.20
2023-04-01T20:47:05.498Z,11.20
2023-04-01T20:52:15.121Z,11.20
2023-04-01T20:57:23.532Z,11.30
2023-04-01T21:02:33.039Z,11.30
2023-04-01T21:07:42.166Z,11.30
2023-04-01T21:12:52.141Z,11.30
2023-04-01T21:18:02.390Z,11.30
2023-04-01T21:23:03.194Z,11.30
2023-04-01T21:28:02.487Z,11.30
2023-04-01T21:33:12.048Z,11.30
2023-04-01T21:38:20.516Z,11.20
2023-04-01T21:43:30.426Z,11.20
2023-04-01T21:48:39.806Z,11.10
2023-04-01T21:53:48.491Z,11.10
2023-04-01T21:58:58.061Z,11.20
2023-04-01T22:04:06.753Z,11.20
2023-04-01T22:09:15.022Z,11.20
2023-04-01T22:14:23.918Z,11.20
2023-04-01T22:19:34.486Z,11.20
2023-04-01T22:24:33.138Z,11.20
2023-04-01T22:29:42.904Z,11.20
2023-04-01T22:34:50.866Z,11.30
2023-04-01T22:40:00.215Z,11.20
2023-04-01T22:45:09.080Z,11.30
2023-04-01T22:50:18.464Z,11.30
2023-04-01T22:55:29.010Z,11.30
2023-04-01T23:00:27.081Z,11.30
2023-04-01T23:05:36.282Z,11.30
2023-04-01T23:10:45.712Z,11.40
2023-04-01T23:15:54.318Z,11.40
2023-04-01T23:21:03.723Z,11.40
2023-04-01T23:26:12.586Z,11.40
2023-04-01T23:31:20.970Z,11.40
2023-04-01T23:36:32.607Z,11.40
2023-04-01T23:41:31.165Z,11.40
2023-04-01T23:46:43.410Z,11.40
2023-04-01T23:51:42.808Z,11.40
2023-04-01T23:56:52.438Z,11.40
